Flight Track Log - Related Links

Times and Time Zones

All times are in EDT time to prevent confusion due to time zone crossing. See the DKT111 flight status page for this flight to view local times or setup timezone preferences in your user account.

Time Position Orientation Groundspeed Altitude Reporting Facility
EDT Latitude Longitude Course Direction KTS MPH feet Rate Location/Type
Thu 11:32:57 AM 46.8736 -98.6072 157° South 161 185 3,300  Level Minneapolis Center
Thu 11:33:58 AM 46.8350 -98.5836 157° South 152 175 4,200 780 Climbing Minneapolis Center
Thu 11:35:00 AM 46.7967 -98.5606 158° South 151 174 4,900 726 Climbing Minneapolis Center
Thu 11:36:02 AM 46.7489 -98.5328 158° South 152 175 5,700 823 Climbing Minneapolis Center
Thu 11:37:04 AM 46.7089 -98.5089 158° South 154 177 6,600 629 Climbing Minneapolis Center
Thu 11:38:00 AM 46.6608 -98.5132 157° South  Level Estimated
Thu 11:38:06 AM 46.6681 -98.4836 157° South 156 180 7,000  Level Minneapolis Center
Thu 11:39:09 AM 46.6225 -98.4578 159° South 164 189 7,000  Level Minneapolis Center
Thu 11:40:11 AM 46.5728 -98.4314 160° South 176 203 7,000  Level Minneapolis Center
Thu 11:41:13 AM 46.5228 -98.4003 157° South 185 213 7,000  Level Minneapolis Center
Thu 11:42:15 AM 46.4628 -98.3672 159° South 191 220 7,000  Level Minneapolis Center
Thu 11:43:17 AM 46.4142 -98.3422 160° South 190 219 7,000  Level Minneapolis Center
Thu 11:44:19 AM 46.3653 -98.3150 159° South 189 217 7,000  Level Minneapolis Center
Thu 11:45:20 AM 46.3172 -98.2889 159° South 188 216 7,000  Level Minneapolis Center
Thu 11:46:22 AM 46.2672 -98.2586 157° South 190 219 7,000  Level Minneapolis Center
Thu 11:47:24 AM 46.2183 -98.2286 157° South 191 220 7,000  Level Minneapolis Center
Thu 11:48:26 AM 46.1589 -98.1939 158° South 191 220 7,000 -48 Level Minneapolis Center
Thu 11:49:28 AM 46.1108 -98.1700 161° South 188 216 6,900 -48 Descending Minneapolis Center
Thu 11:50:30 AM 46.0639 -98.1406 156° South 188 216 6,900  Level Minneapolis Center
Thu 11:51:32 AM 46.0139 -98.1147 160° South 190 219 6,900  Level Minneapolis Center
Thu 11:52:34 AM 45.9664 -98.0778 152° Southeast 189 217 6,900  Level Minneapolis Center
Thu 11:53:36 AM 45.9094 -98.0425 157° South 190 219 6,900 48 Level Minneapolis Center
Thu 11:54:38 AM 45.8608 -98.0136 158° South 190 219 7,000 97 Climbing Minneapolis Center
Thu 11:55:40 AM 45.8117 -97.9872 159° South 190 219 7,100  Climbing Minneapolis Center
Thu 11:56:42 AM 45.7622 -97.9608 160° South 189 217 7,000 -97 Descending Minneapolis Center
Thu 11:57:44 AM 45.7131 -97.9311 157° South 190 219 6,900  Descending Minneapolis Center
Thu 11:58:46 AM 45.6650 -97.9033 158° South 189 217 7,000 48 Climbing Minneapolis Center
Thu 11:59:48 AM 45.6053 -97.8767 163° South 188 216 7,000  Level Minneapolis Center
Thu 12:00:50 PM 45.5567 -97.8528 161° South 187 215 7,000 48 Level Minneapolis Center
Thu 12:01:52 PM 45.5086 -97.8311 162° South 185 213 7,100 48 Climbing Minneapolis Center
Thu 12:02:54 PM 45.4619 -97.8014 156° South 184 212 7,100 -48 Level Minneapolis Center
Thu 12:03:56 PM 45.4150 -97.7733 157° South 183 211 7,000 -98 Descending Minneapolis Center
Thu 12:04:57 PM 45.3667 -97.7439 157° South 185 213 6,900 -49 Descending Minneapolis Center
Thu 12:05:59 PM 45.3150 -97.7131 157° South 186 214 6,900 48 Level Minneapolis Center
Thu 12:07:01 PM 45.2717 -97.6886 158° South 186 214 7,000 48 Climbing Minneapolis Center
Thu 12:08:03 PM 45.2139 -97.6586 160° South 185 213 7,000 -48 Level Minneapolis Center
Thu 12:09:05 PM 45.1594 -97.6311 160° South 187 215 6,900 -48 Descending Minneapolis Center
Thu 12:10:07 PM 45.1128 -97.6031 157° South 187 215 6,900  Level Minneapolis Center
Thu 12:11:09 PM 45.0608 -97.5808 163° South 189 217 6,900 48 Level Minneapolis Center
Thu 12:12:11 PM 45.0119 -97.5544 159° South 190 219 7,000  Climbing Minneapolis Center
Thu 12:13:12 PM 44.9622 -97.5283 160° South 191 220 6,900  Descending Minneapolis Center
Thu 12:14:14 PM 44.9122 -97.5031 160° South 191 220 7,000 48 Climbing Minneapolis Center
Thu 12:15:16 PM 44.8519 -97.4744 161° South 191 220 7,000 -48 Level Minneapolis Center
Thu 12:16:18 PM 44.8003 -97.4511 162° South 192 221 6,900 -48 Descending Minneapolis Center
Thu 12:17:20 PM 44.7469 -97.4283 163° South 195 224 6,900  Level Minneapolis Center
Thu 12:18:22 PM 44.6972 -97.3975 156° South 197 227 6,900 49 Level Minneapolis Center
Thu 12:19:23 PM 44.6472 -97.3683 157° South 197 227 7,000  Climbing Minneapolis Center
Thu 12:20:25 PM 44.5956 -97.3425 160° South 197 227 6,900 -48 Descending Minneapolis Center
Thu 12:21:27 PM 44.5469 -97.3117 156° South 196 226 6,900  Level Minneapolis Center
Thu 12:22:29 PM 44.4892 -97.2761 156° South 193 222 6,900  Level Minneapolis Center
Thu 12:23:31 PM 44.4403 -97.2467 157° South 192 221 6,900  Level Minneapolis Center
Thu 12:24:33 PM 44.3914 -97.2183 158° South 191 220 6,900  Level Minneapolis Center
Thu 12:25:35 PM 44.3406 -97.1914 159° South 193 222 6,900 49 Level Minneapolis Center
Thu 12:26:36 PM 44.2914 -97.1628 157° South 193 222 7,000  Climbing Minneapolis Center
Thu 12:27:38 PM 44.2431 -97.1322 156° South 192 221 6,900 -48 Descending Minneapolis Center
Thu 12:28:40 PM 44.1853 -97.0961 156° South 191 220 6,900 48 Level Minneapolis Center
Thu 12:29:42 PM 44.1375 -97.0650 155° Southeast 191 220 7,000 97 Climbing Minneapolis Center
Thu 12:30:44 PM 44.0889 -97.0356 156° South 191 220 7,100  Climbing Minneapolis Center
Thu 12:31:46 PM 44.0397 -97.0100 160° South 190 219 7,000 -97 Descending Minneapolis Center
Thu 12:32:48 PM 43.9906 -96.9797 156° South 191 220 6,900 -339 Descending Minneapolis Center
Thu 12:33:50 PM 43.9347 -96.9678 171° South 198 228 6,300 -581 Descending Minneapolis Center
Thu 12:34:52 PM 43.8708 -96.9394 162° South 201 231 5,700 -726 Descending Minneapolis Center
Thu 12:35:54 PM 43.8228 -96.9047 152° Southeast 198 228 4,800 -1,065 Descending Minneapolis Center
Thu 12:36:56 PM 43.7747 -96.8711 153° Southeast 196 226 3,500 -968 Descending Minneapolis Center
Thu 12:37:58 PM 43.7278 -96.8389 154° Southeast 194 223 2,800 -387 Descending Minneapolis Center
Thu 12:39:00 PM 43.6844 -96.8083 153° Southeast 187 215 2,700 -97 Descending Minneapolis Center
Thu 12:40:02 PM 43.6392 -96.7725 150° Southeast 172 198 2,600 -242 Descending Minneapolis Center
Thu 12:41:04 PM 43.5964 -96.7683 176° South 166 191 2,200 -390 Descending Minneapolis Center
Thu 12:42:05 PM 43.5572 -96.7653 177° South 157 181 1,800 -393 Descending Minneapolis Center
Thu 12:44:00 PM 43.5820 -96.7419 34° Northeast  Level Estimated

Login

Don't have an account? Register now (free) for customized features, flight alerts, and more!